Time;durP1;ratioP1;P1;durP2;ratioP2;P2;SDS_P1;SDS_P2;PMS_P1;PMS_P2;Temp;Humidity;BMP_temperature;BMP_pressure;BME280_temperature;BME280_humidity;BME280_pressure;Samples;Min_cycle;Max_cycle;Signal;HPM_P1;HPM_P2
2023/08/06 00:00:18;;;;;;;10.15;8.98;;;17.40;99.90;;;;;;5101735;28;20079;-77
2023/08/06 00:02:44;;;;;;;11.38;8.70;;;18.20;99.90;;;;;;5090046;28;20023;-75
2023/08/06 00:05:09;;;;;;;11.32;9.00;;;17.60;99.90;;;;;;5072912;28;20035;-75
2023/08/06 00:07:35;;;;;;;11.88;9.32;;;16.30;99.90;;;;;;5090113;28;20032;-75
2023/08/06 00:10:01;;;;;;;11.60;8.68;;;17.10;99.90;;;;;;5072915;28;20036;-76
2023/08/06 00:12:26;;;;;;;9.55;8.55;;;18.40;99.90;;;;;;5056463;28;20219;-75
2023/08/06 00:14:53;;;;;;;11.38;8.52;;;16.90;99.90;;;;;;5089696;28;20306;-76
2023/08/06 00:17:19;;;;;;;10.15;8.68;;;18.40;99.90;;;;;;5089252;28;20058;-76
2023/08/06 00:19:45;;;;;;;9.15;8.15;;;18.00;99.90;;;;;;5085928;28;20036;-77
2023/08/06 00:22:10;;;;;;;16.02;9.00;;;17.50;99.90;;;;;;5068031;28;20032;-78
2023/08/06 00:24:36;;;;;;;11.13;8.43;;;17.40;99.90;;;;;;5069571;28;20449;-78
2023/08/06 00:27:02;;;;;;;10.93;8.43;;;17.40;99.90;;;;;;5069258;28;20102;-77
2023/08/06 00:29:28;;;;;;;12.13;9.07;;;16.20;99.90;;;;;;5069459;28;20032;-77
2023/08/06 00:31:54;;;;;;;10.88;8.55;;;16.90;99.90;;;;;;5069433;28;20293;-76
2023/08/06 00:34:20;;;;;;;9.27;8.02;;;18.40;99.90;;;;;;5083042;28;20041;-77
2023/08/06 00:36:45;;;;;;;9.23;8.10;;;16.40;99.90;;;;;;5072524;28;20063;-77
2023/08/06 00:39:11;;;;;;;9.55;8.45;;;16.20;99.90;;;;;;5089264;28;20039;-77
2023/08/06 00:41:37;;;;;;;9.93;8.57;;;16.20;99.90;;;;;;5089312;28;20035;-77
2023/08/06 00:44:03;;;;;;;10.13;8.25;;;16.20;99.90;;;;;;5105653;28;20256;-77
2023/08/06 00:46:29;;;;;;;10.73;9.35;;;16.50;99.90;;;;;;5089253;28;20039;-77
2023/08/06 00:48:55;;;;;;;14.02;9.43;;;16.60;99.90;;;;;;5072534;28;20031;-77
2023/08/06 00:51:22;;;;;;;10.05;8.50;;;16.30;99.90;;;;;;5101880;28;20031;-77
2023/08/06 00:53:49;;;;;;;10.65;8.70;;;18.30;99.90;;;;;;5105665;28;20070;-75
2023/08/06 00:56:15;;;;;;;12.40;8.45;;;16.20;99.90;;;;;;5088086;28;20211;-76
2023/08/06 00:58:41;;;;;;;10.68;9.15;;;16.20;99.90;;;;;;5088073;28;20081;-77
2023/08/06 01:01:07;;;;;;;12.40;9.63;;;18.10;99.90;;;;;;5071005;28;20098;-78
2023/08/06 01:03:33;;;;;;;9.88;8.73;;;16.20;99.90;;;;;;5072026;28;20065;-80
2023/08/06 01:05:59;;;;;;;12.73;8.82;;;18.00;99.90;;;;;;5071175;28;20241;-78
2023/08/06 01:08:34;;;;;;;12.20;8.68;;;16.40;99.90;;;;;;5085829;28;20048;-76
2023/08/06 01:11:12;;;;;;;;;;;16.40;99.90;;;;;;5104569;28;20062;-77
2023/08/06 01:13:37;;;;;;;11.32;8.55;;;16.90;99.90;;;;;;5105426;28;19947;-76
2023/08/06 01:16:05;;;;;;;19.63;10.05;;;17.00;99.90;;;;;;5088410;28;20102;-77
2023/08/06 01:18:31;;;;;;;14.30;9.45;;;16.20;99.90;;;;;;5088527;28;20066;-78
2023/08/06 01:20:57;;;;;;;12.55;9.65;;;16.90;99.90;;;;;;5105355;28;20031;-76
2023/08/06 01:23:24;;;;;;;10.80;8.85;;;17.70;99.90;;;;;;5102164;28;20024;-76
2023/08/06 01:26:03;;;;;;;12.32;9.98;;;17.20;99.90;;;;;;5087993;28;20342;-76
2023/08/06 01:28:55;;;;;;;13.20;10.77;;;16.60;99.90;;;;;;5088333;28;20023;-77
2023/08/06 01:31:35;;;;;;;11.98;10.15;;;17.70;99.90;;;;;;5104831;28;20106;-76
2023/08/06 01:34:01;;;;;;;16.48;10.75;;;17.00;99.90;;;;;;5104843;28;20032;-76
2023/08/06 01:36:28;;;;;;;13.48;11.80;;;16.90;99.90;;;;;;5087768;28;20040;-75
2023/08/06 01:38:54;;;;;;;13.35;9.88;;;17.70;99.90;;;;;;5087868;28;20043;-76
2023/08/06 01:41:20;;;;;;;13.70;9.95;;;17.80;99.90;;;;;;5085258;28;20098;-76
2023/08/06 01:43:45;;;;;;;14.02;10.93;;;16.80;99.90;;;;;;5086815;28;20028;-76
2023/08/06 01:46:11;;;;;;;14.32;11.55;;;17.00;99.90;;;;;;5087580;28;20023;-76
2023/08/06 01:48:37;;;;;;;15.07;11.80;;;17.20;99.90;;;;;;5104900;28;20035;-76
2023/08/06 01:51:06;;;;;;;12.25;10.45;;;17.60;99.90;;;;;;5087630;28;20100;-77
2023/08/06 01:53:33;;;;;;;14.45;11.40;;;16.80;99.90;;;;;;5087817;28;20031;-77
2023/08/06 01:55:58;;;;;;;16.67;11.32;;;16.90;99.90;;;;;;5088167;28;20050;-77
2023/08/06 01:58:24;;;;;;;14.13;11.25;;;16.70;99.90;;;;;;5070870;28;20222;-77
2023/08/06 02:00:50;;;;;;;16.67;12.65;;;17.80;99.90;;;;;;5069097;28;20201;-77
2023/08/06 02:03:15;;;;;;;19.70;13.27;;;17.80;99.90;;;;;;5070786;28;20031;-79
2023/08/06 02:05:42;;;;;;;13.38;11.48;;;18.00;99.90;;;;;;5087520;28;20268;-77
2023/08/06 02:08:08;;;;;;;14.48;12.40;;;18.10;99.90;;;;;;5087101;28;20051;-77
2023/08/06 02:10:34;;;;;;;17.55;12.13;;;18.50;99.90;;;;;;5086221;28;20098;-77
2023/08/06 02:12:59;;;;;;;18.15;11.77;;;16.60;99.90;;;;;;5069254;28;20039;-79
2023/08/06 02:15:25;;;;;;;17.35;13.32;;;17.80;99.90;;;;;;5068847;28;20043;-78
2023/08/06 02:17:51;;;;;;;16.00;13.15;;;16.50;99.90;;;;;;5084870;28;20098;-78
2023/08/06 02:20:17;;;;;;;19.35;14.82;;;16.60;99.90;;;;;;5086412;28;20047;-79
2023/08/06 02:22:43;;;;;;;18.10;13.68;;;18.30;99.90;;;;;;5103552;28;20226;-78
2023/08/06 02:25:08;;;;;;;17.25;12.90;;;16.90;99.90;;;;;;5069325;28;20037;-78
2023/08/06 02:27:34;;;;;;;18.23;14.30;;;18.70;99.90;;;;;;5086783;28;20107;-78
2023/08/06 02:30:00;;;;;;;17.33;14.20;;;17.60;99.90;;;;;;5086500;28;20035;-78
2023/08/06 02:32:26;;;;;;;17.25;13.65;;;17.20;99.90;;;;;;5103681;28;20043;-78
2023/08/06 02:34:51;;;;;;;19.17;16.08;;;18.40;99.90;;;;;;5098248;28;20532;-78
2023/08/06 02:37:17;;;;;;;17.30;14.15;;;16.50;99.90;;;;;;5085453;28;20028;-79
2023/08/06 02:39:43;;;;;;;21.38;16.55;;;17.90;99.90;;;;;;5102792;28;20042;-78
2023/08/06 02:42:09;;;;;;;16.90;13.90;;;18.70;99.90;;;;;;5086314;28;20027;-78
2023/08/06 02:44:35;;;;;;;17.75;15.20;;;17.80;99.90;;;;;;5086646;28;20028;-77
2023/08/06 02:47:01;;;;;;;18.13;15.13;;;16.70;99.90;;;;;;5086703;28;20137;-78
2023/08/06 02:49:27;;;;;;;17.50;14.50;;;17.00;99.90;;;;;;5069567;28;20031;-77
2023/08/06 02:51:52;;;;;;;18.75;13.48;;;16.60;99.90;;;;;;5049722;28;20071;-78
2023/08/06 02:54:18;;;;;;;16.33;14.15;;;18.00;99.90;;;;;;5085026;28;20358;-78
2023/08/06 02:56:46;;;;;;;17.98;13.68;;;16.50;99.90;;;;;;5069272;28;20069;-77
2023/08/06 02:59:12;;;;;;;15.93;13.30;;;17.00;99.90;;;;;;5085474;28;20043;-77
2023/08/06 03:01:38;;;;;;;16.25;13.32;;;18.20;99.90;;;;;;5086180;28;20035;-78
2023/08/06 03:04:04;;;;;;;15.57;13.50;;;18.50;99.90;;;;;;5086278;28;20043;-77
2023/08/06 03:06:30;;;;;;;16.13;12.75;;;18.70;99.90;;;;;;5085645;28;20286;-78
2023/08/06 03:08:56;;;;;;;15.52;12.38;;;17.10;99.90;;;;;;5084515;28;20035;-78
2023/08/06 03:11:21;;;;;;;17.40;13.13;;;18.00;99.90;;;;;;5067389;28;20036;-77
2023/08/06 03:13:48;;;;;;;17.83;14.10;;;18.40;99.90;;;;;;5085958;28;20051;-77
2023/08/06 03:16:13;;;;;;;16.75;13.82;;;17.50;99.90;;;;;;5086038;28;20081;-77
2023/08/06 03:18:39;;;;;;;17.30;13.82;;;16.60;99.90;;;;;;5086496;28;20035;-77
2023/08/06 03:21:05;;;;;;;16.13;14.13;;;16.70;99.90;;;;;;5070008;28;20035;-74
2023/08/06 03:23:31;;;;;;;17.70;13.43;;;16.60;99.90;;;;;;5103107;28;20336;-74
2023/08/06 03:26:00;;;;;;;17.02;13.82;;;18.70;99.90;;;;;;5099669;28;20023;-75
2023/08/06 03:28:26;;;;;;;18.95;13.65;;;17.60;99.90;;;;;;5102839;28;20050;-76
2023/08/06 03:31:00;;;;;;;18.80;13.73;;;17.80;99.90;;;;;;5103459;28;20028;-73
2023/08/06 03:33:25;;;;;;;18.23;13.43;;;17.50;99.90;;;;;;5103086;28;20034;-77
2023/08/06 03:35:51;;;;;;;16.17;12.60;;;18.70;99.90;;;;;;5103468;28;20102;-77
2023/08/06 03:38:17;;;;;;;16.50;12.82;;;17.50;99.90;;;;;;5086130;28;20028;-77
2023/08/06 03:40:43;;;;;;;14.13;11.13;;;17.40;99.90;;;;;;5086346;28;20156;-77
2023/08/06 03:43:09;;;;;;;12.77;11.38;;;17.80;99.90;;;;;;5059322;28;20032;-77
2023/08/06 03:45:34;;;;;;;13.60;11.60;;;18.50;99.90;;;;;;5067417;28;20108;-77
2023/08/06 03:48:00;;;;;;;13.73;10.63;;;17.20;99.90;;;;;;5069219;28;20020;-77
2023/08/06 03:50:26;;;;;;;12.90;11.32;;;16.90;99.90;;;;;;5069422;28;20038;-77
2023/08/06 03:52:51;;;;;;;12.43;10.48;;;17.40;99.90;;;;;;5086282;28;20036;-78
2023/08/06 03:55:17;;;;;;;13.32;10.13;;;16.70;99.90;;;;;;5100665;28;20040;-77
2023/08/06 03:57:42;;;;;;;12.00;9.88;;;18.00;99.90;;;;;;5052103;28;20114;-77
2023/08/06 04:00:09;;;;;;;11.45;10.18;;;18.50;99.90;;;;;;5070006;28;20044;-77
2023/08/06 04:02:34;;;;;;;11.23;9.63;;;18.60;99.90;;;;;;5086318;28;20104;-77
2023/08/06 04:05:01;;;;;;;11.68;9.93;;;17.30;99.90;;;;;;5053180;28;20020;-76
2023/08/06 04:07:27;;;;;;;11.15;9.70;;;18.30;99.90;;;;;;5085807;28;20035;-76
2023/08/06 04:09:58;;;;;;;12.27;9.93;;;17.50;99.90;;;;;;5052833;28;20055;-77
2023/08/06 04:12:24;;;;;;;10.77;9.57;;;16.90;99.90;;;;;;5073454;28;20043;-76
2023/08/06 04:14:54;;;;;;;11.93;9.98;;;16.60;99.90;;;;;;5089073;28;20031;-77
2023/08/06 04:17:20;;;;;;;10.98;9.88;;;18.50;99.90;;;;;;5089537;28;20039;-77
2023/08/06 04:19:50;;;;;;;16.92;10.43;;;17.70;99.90;;;;;;5089418;28;20038;-78
2023/08/06 04:22:16;;;;;;;13.18;9.90;;;16.80;99.90;;;;;;5089472;28;20326;-78
2023/08/06 04:24:43;;;;;;;12.60;9.93;;;17.50;99.90;;;;;;5105881;28;20074;-78
2023/08/06 04:27:09;;;;;;;13.40;10.40;;;17.30;99.90;;;;;;5106251;28;20133;-77
2023/08/06 04:29:35;;;;;;;12.77;9.70;;;18.60;99.90;;;;;;5078218;28;20447;-77
2023/08/06 04:32:01;;;;;;;14.15;10.88;;;16.40;99.90;;;;;;5068573;28;20130;-77
2023/08/06 04:34:27;;;;;;;11.90;10.13;;;17.00;99.90;;;;;;5051998;28;20310;-77
2023/08/06 04:36:52;;;;;;;12.77;9.75;;;18.60;99.90;;;;;;5052468;28;20253;-77
2023/08/06 04:39:18;;;;;;;11.88;10.00;;;17.50;99.90;;;;;;5068517;28;20104;-78
2023/08/06 04:41:44;;;;;;;12.52;10.32;;;16.40;99.90;;;;;;5068834;28;20040;-78
2023/08/06 04:44:10;;;;;;;15.43;10.95;;;17.80;99.90;;;;;;5068382;28;20051;-78
2023/08/06 04:46:37;;;;;;;13.18;10.13;;;17.20;99.90;;;;;;5082646;28;20023;-78
2023/08/06 04:49:03;;;;;;;14.52;10.63;;;17.10;99.90;;;;;;5088789;28;20024;-78
2023/08/06 04:51:28;;;;;;;11.98;10.02;;;16.40;99.90;;;;;;5105385;28;20028;-77
2023/08/06 04:53:54;;;;;;;12.18;10.55;;;17.70;99.90;;;;;;5088550;28;20270;-77
2023/08/06 04:56:19;;;;;;;13.02;10.93;;;17.40;99.90;;;;;;5104891;28;20226;-77
2023/08/06 04:58:45;;;;;;;13.57;10.75;;;17.10;99.90;;;;;;5088291;28;20350;-77
2023/08/06 05:01:11;;;;;;;12.60;9.70;;;16.90;99.90;;;;;;5101227;28;20034;-76
2023/08/06 05:03:36;;;;;;;12.52;10.05;;;17.80;99.90;;;;;;5104520;28;20034;-77
2023/08/06 05:06:02;;;;;;;14.52;11.52;;;16.90;99.90;;;;;;5071713;28;20028;-79
2023/08/06 05:08:28;;;;;;;13.20;10.52;;;17.90;99.90;;;;;;5087350;28;20046;-77
2023/08/06 05:10:53;;;;;;;18.73;12.40;;;18.40;99.90;;;;;;5071628;28;20031;-77
2023/08/06 05:13:19;;;;;;;14.45;10.90;;;16.70;99.90;;;;;;5088401;28;20322;-77
2023/08/06 05:15:46;;;;;;;12.00;10.70;;;17.90;99.90;;;;;;5071645;28;20023;-77
2023/08/06 05:18:12;;;;;;;15.35;10.88;;;17.50;99.90;;;;;;5071911;28;20146;-77
2023/08/06 05:20:39;;;;;;;13.98;11.35;;;18.00;99.90;;;;;;5074670;28;20043;-77
2023/08/06 05:23:05;;;;;;;12.68;11.32;;;17.10;99.90;;;;;;5051471;28;20303;-78
2023/08/06 05:25:31;;;;;;;14.30;10.75;;;19.00;99.90;;;;;;5084598;28;20036;-78
2023/08/06 05:27:57;;;;;;;15.52;11.27;;;16.90;99.90;;;;;;5067930;28;20032;-76
2023/08/06 05:30:22;;;;;;;13.40;10.70;;;17.70;99.90;;;;;;5067388;28;20036;-77
2023/08/06 05:32:48;;;;;;;14.40;11.77;;;18.00;99.90;;;;;;5051214;28;20031;-76
2023/08/06 05:35:14;;;;;;;11.57;9.80;;;18.40;99.90;;;;;;5051299;28;20066;-76
2023/08/06 05:37:39;;;;;;;14.80;9.77;;;17.00;99.90;;;;;;5068426;28;20036;-76
2023/08/06 05:40:05;;;;;;;11.00;9.43;;;17.10;99.90;;;;;;5066818;28;20058;-77
2023/08/06 05:42:31;;;;;;;13.50;10.38;;;19.20;99.90;;;;;;5054022;28;20035;-77
2023/08/06 05:44:57;;;;;;;13.95;11.38;;;17.50;99.90;;;;;;5071149;28;20038;-78
2023/08/06 05:47:22;;;;;;;12.07;10.32;;;19.20;99.90;;;;;;5087529;28;20035;-77
2023/08/06 05:49:48;;;;;;;12.32;10.05;;;19.20;99.90;;;;;;5087702;28;20098;-77
2023/08/06 05:52:14;;;;;;;13.23;9.48;;;19.10;99.90;;;;;;5104356;28;20027;-78
2023/08/06 05:54:40;;;;;;;11.60;10.20;;;17.90;99.90;;;;;;5084958;28;20024;-77
2023/08/06 05:57:06;;;;;;;10.80;9.27;;;18.40;99.90;;;;;;5054144;28;20059;-77
2023/08/06 05:59:32;;;;;;;11.63;9.85;;;17.50;99.90;;;;;;5103863;28;20109;-78
2023/08/06 06:01:58;;;;;;;12.55;9.55;;;17.40;99.90;;;;;;5104282;28;20031;-77
2023/08/06 06:04:25;;;;;;;10.10;9.00;;;19.00;99.90;;;;;;5087332;28;20043;-77
2023/08/06 06:06:50;;;;;;;12.20;10.23;;;19.90;99.90;;;;;;5070914;28;20042;-77
2023/08/06 06:09:16;;;;;;;14.00;10.73;;;19.80;99.90;;;;;;5104180;28;20039;-78
2023/08/06 06:11:42;;;;;;;12.13;9.95;;;18.30;99.90;;;;;;5103435;28;20103;-78
2023/08/06 06:14:08;;;;;;;10.10;9.07;;;19.80;99.90;;;;;;5064443;28;20106;-79
2023/08/06 06:16:34;;;;;;;11.10;9.23;;;17.60;99.90;;;;;;5066703;28;20067;-78
2023/08/06 06:19:00;;;;;;;10.57;9.00;;;17.70;99.90;;;;;;5083649;28;20111;-78
2023/08/06 06:21:25;;;;;;;10.07;8.68;;;19.40;99.90;;;;;;5050562;28;20020;-79
2023/08/06 06:23:51;;;;;;;9.35;8.38;;;18.70;99.90;;;;;;5066963;28;20090;-78
2023/08/06 06:26:18;;;;;;;9.93;8.93;;;18.20;99.90;;;;;;5066875;28;20337;-77
2023/08/06 06:28:44;;;;;;;9.65;8.35;;;20.20;99.90;;;;;;5066465;28;20036;-77
2023/08/06 06:31:09;;;;;;;8.88;7.80;;;20.30;99.90;;;;;;5070906;28;20333;-76
2023/08/06 06:33:35;;;;;;;10.90;7.93;;;18.80;99.90;;;;;;5082725;28;20034;-77
2023/08/06 06:36:03;;;;;;;9.20;8.30;;;19.30;99.90;;;;;;5083476;28;20260;-76
2023/08/06 06:38:29;;;;;;;10.10;8.38;;;18.70;99.90;;;;;;5033813;28;20108;-77
2023/08/06 06:40:56;;;;;;;9.80;8.70;;;20.10;99.90;;;;;;5083408;28;20043;-76
2023/08/06 06:43:22;;;;;;;10.25;8.57;;;18.50;99.90;;;;;;5083223;28;20074;-76
2023/08/06 06:45:53;;;;;;;10.23;7.95;;;19.50;99.90;;;;;;5066273;28;20301;-76
2023/08/06 06:48:19;;;;;;;9.68;8.68;;;20.60;99.90;;;;;;5076517;28;20027;-77
2023/08/06 06:50:48;;;;;;;9.43;8.40;;;18.20;99.90;;;;;;5068913;28;20364;-76
2023/08/06 06:53:14;;;;;;;11.70;8.57;;;20.70;99.90;;;;;;5086492;28;20030;-75
2023/08/06 06:55:40;;;;;;;8.77;7.88;;;19.50;99.90;;;;;;5081252;28;20094;-75
2023/08/06 06:58:06;;;;;;;7.85;7.15;;;19.60;99.90;;;;;;5046805;28;20248;-76
2023/08/06 07:00:31;;;;;;;9.45;8.15;;;20.50;99.90;;;;;;5026121;28;20053;-76
2023/08/06 07:02:57;;;;;;;9.27;8.00;;;19.80;99.90;;;;;;5042492;28;20219;-76
2023/08/06 07:05:23;;;;;;;9.80;8.05;;;20.60;99.90;;;;;;5029704;28;20025;-77
2023/08/06 07:07:48;;;;;;;8.38;7.45;;;21.00;99.90;;;;;;5060867;28;20103;-77
2023/08/06 07:10:14;;;;;;;8.77;7.60;;;21.20;99.90;;;;;;5079348;28;20036;-77
2023/08/06 07:12:40;;;;;;;8.25;7.35;;;21.10;99.90;;;;;;5045034;28;20072;-79
2023/08/06 07:15:09;;;;;;;7.35;6.55;;;20.40;99.90;;;;;;5062017;28;20131;-77
2023/08/06 07:17:35;;;;;;;7.22;6.53;;;20.70;99.90;;;;;;5078415;28;20200;-77
2023/08/06 07:20:01;;;;;;;9.07;8.18;;;19.10;99.90;;;;;;5046179;28;20031;-76
2023/08/06 07:22:26;;;;;;;7.55;6.75;;;19.90;99.90;;;;;;5043700;28;20033;-76
2023/08/06 07:24:52;;;;;;;7.50;6.80;;;21.20;99.90;;;;;;5062344;28;20128;-76
2023/08/06 07:27:18;;;;;;;9.52;7.43;;;21.30;99.90;;;;;;5046201;28;20374;-77
2023/08/06 07:29:44;;;;;;;8.13;7.07;;;20.20;99.90;;;;;;5045779;28;20036;-77
2023/08/06 07:32:09;;;;;;;9.00;8.00;;;19.60;99.90;;;;;;5064737;28;20234;-78
2023/08/06 07:34:35;;;;;;;10.63;7.60;;;19.70;99.90;;;;;;5066401;28;20036;-76
2023/08/06 07:37:01;;;;;;;7.53;6.80;;;20.70;99.90;;;;;;5050086;28;20032;-78
2023/08/06 07:39:28;;;;;;;7.50;6.80;;;21.70;99.90;;;;;;5064411;28;20047;-78
2023/08/06 07:41:54;;;;;;;8.40;7.60;;;21.10;99.90;;;;;;5082751;28;20047;-79
2023/08/06 07:44:19;;;;;;;7.47;6.75;;;19.70;99.90;;;;;;5066436;28;20067;-78
2023/08/06 07:46:45;;;;;;;9.68;6.88;;;20.30;99.90;;;;;;5066175;28;20025;-79
2023/08/06 07:49:11;;;;;;;7.53;6.25;;;20.20;99.90;;;;;;5066520;28;20032;-79
2023/08/06 07:51:37;;;;;;;7.18;5.70;;;20.20;99.90;;;;;;5066164;28;20064;-79
2023/08/06 07:54:03;;;;;;;7.10;6.50;;;19.80;99.90;;;;;;5066466;28;20040;-79
2023/08/06 07:56:29;;;;;;;7.95;6.30;;;21.20;99.90;;;;;;5053627;28;20089;-77
2023/08/06 07:58:54;;;;;;;7.40;6.65;;;20.30;99.90;;;;;;5072458;28;20047;-77
2023/08/06 08:01:20;;;;;;;7.20;6.05;;;20.20;99.90;;;;;;5089757;28;20191;-77
2023/08/06 08:03:46;;;;;;;7.22;6.25;;;20.60;99.90;;;;;;5072422;28;20024;-78
2023/08/06 08:06:11;;;;;;;6.65;6.05;;;21.60;99.90;;;;;;5089402;28;20028;-78
2023/08/06 08:08:38;;;;;;;7.03;6.32;;;20.60;99.90;;;;;;5089559;28;20058;-77
2023/08/06 08:11:05;;;;;;;5.95;5.35;;;21.10;99.90;;;;;;5073028;28;20036;-77
2023/08/06 08:13:31;;;;;;;6.55;5.95;;;20.50;99.90;;;;;;5070388;28;20069;-79
2023/08/06 08:16:00;;;;;;;6.72;6.10;;;20.50;99.90;;;;;;5067918;28;20040;-78
2023/08/06 08:18:26;;;;;;;6.90;6.30;;;21.40;99.90;;;;;;5085954;28;20329;-77
2023/08/06 08:20:52;;;;;;;6.70;6.10;;;21.50;99.90;;;;;;5068437;28;20036;-78
2023/08/06 08:23:18;;;;;;;5.90;5.32;;;22.10;99.90;;;;;;5052028;28;20036;-78
2023/08/06 08:25:43;;;;;;;7.70;6.07;;;21.30;99.90;;;;;;5067743;28;20074;-77
2023/08/06 08:28:09;;;;;;;7.00;6.38;;;22.10;99.90;;;;;;5051462;28;20028;-78
2023/08/06 08:30:35;;;;;;;7.28;6.57;;;21.60;99.90;;;;;;5051636;28;20032;-77
2023/08/06 08:33:00;;;;;;;7.03;6.32;;;22.30;99.90;;;;;;5079946;28;20126;-78
2023/08/06 08:35:26;;;;;;;5.95;5.45;;;21.90;99.90;;;;;;5071100;28;20264;-80
2023/08/06 08:37:52;;;;;;;5.30;4.80;;;22.40;99.90;;;;;;5070938;28;20036;-78
2023/08/06 08:40:18;;;;;;;4.82;4.40;;;21.80;99.90;;;;;;5054817;28;20316;-79
2023/08/06 08:42:43;;;;;;;4.88;4.35;;;21.60;99.90;;;;;;5103612;28;20032;-80
2023/08/06 08:45:16;;;;;;;5.15;4.05;;;21.80;99.90;;;;;;5071072;28;20032;-78
2023/08/06 08:47:47;;;;;;;4.10;3.70;;;21.80;99.90;;;;;;5104532;28;20044;-79
2023/08/06 08:50:14;;;;;;;4.85;4.35;;;22.00;99.90;;;;;;5069025;28;20039;-79
2023/08/06 08:52:40;;;;;;;4.85;4.35;;;22.30;99.90;;;;;;5087425;28;20039;-80
2023/08/06 08:55:07;;;;;;;5.50;4.57;;;22.40;99.90;;;;;;5087883;28;20418;-82
2023/08/06 08:57:33;;;;;;;5.90;5.30;;;22.10;99.90;;;;;;5104848;28;20085;-79
2023/08/06 08:59:59;;;;;;;4.93;4.38;;;22.10;99.90;;;;;;5105301;28;20040;-79
2023/08/06 09:02:29;;;;;;;6.47;5.00;;;22.50;99.90;;;;;;5071867;28;20019;-79
2023/08/06 09:05:03;;;;;;;7.22;4.80;;;22.30;99.90;;;;;;5101806;28;20032;-78
2023/08/06 09:07:37;;;;;;;5.60;4.00;;;22.80;99.90;;;;;;5103778;28;20035;-79
2023/08/06 09:10:04;;;;;;;4.65;4.15;;;22.60;99.90;;;;;;5088238;28;20043;-80
2023/08/06 09:12:30;;;;;;;3.90;3.50;;;22.70;99.90;;;;;;5088556;28;20035;-78
2023/08/06 09:14:58;;;;;;;3.00;2.70;;;22.70;99.90;;;;;;5088021;28;20047;-80
2023/08/06 09:17:24;;;;;;;2.88;2.38;;;23.00;99.90;;;;;;5105461;28;20310;-80
2023/08/06 09:19:49;;;;;;;2.80;2.15;;;22.70;99.90;;;;;;5104862;28;20111;-80
2023/08/06 09:22:15;;;;;;;2.88;2.30;;;22.80;99.90;;;;;;5101417;28;20024;-80
2023/08/06 09:24:42;;;;;;;2.80;2.47;;;22.70;99.90;;;;;;5087890;28;20031;-79
2023/08/06 09:27:15;;;;;;;2.65;2.00;;;22.80;99.90;;;;;;5071209;28;20237;-80
2023/08/06 09:29:45;;;;;;;2.15;1.90;;;22.60;99.90;;;;;;5055620;28;20042;-79
2023/08/06 09:32:12;;;;;;;4.40;2.30;;;22.70;99.90;;;;;;5055564;28;20110;-78
2023/08/06 09:34:45;;;;;;;2.53;2.00;;;22.90;99.90;;;;;;5088025;28;20035;-79
2023/08/06 09:37:11;;;;;;;2.55;1.85;;;22.80;99.90;;;;;;5071454;28;20040;-79
2023/08/06 09:39:42;;;;;;;2.47;2.28;;;22.90;99.90;;;;;;5104690;28;20039;-79
2023/08/06 09:42:08;;;;;;;1.98;1.77;;;23.00;99.90;;;;;;5067346;28;20032;-79
2023/08/06 09:44:34;;;;;;;2.58;2.38;;;23.70;99.90;;;;;;5068469;28;20047;-80
2023/08/06 09:47:04;;;;;;;3.25;2.50;;;24.20;99.90;;;;;;5075897;28;20020;-80
2023/08/06 09:49:33;;;;;;;3.92;2.80;;;23.80;99.90;;;;;;5104634;28;20050;-79
2023/08/06 09:51:59;;;;;;;2.40;2.03;;;24.40;99.90;;;;;;5103812;28;20031;-79
2023/08/06 09:54:27;;;;;;;2.22;2.03;;;24.70;99.90;;;;;;5086995;28;20039;-80
2023/08/06 09:56:56;;;;;;;2.50;2.30;;;24.80;99.90;;;;;;5083549;28;20099;-79
2023/08/06 09:59:26;;;;;;;3.55;1.80;;;24.50;99.90;;;;;;5101005;28;20063;-80
2023/08/06 10:01:55;;;;;;;2.22;1.73;;;24.80;99.90;;;;;;5100504;28;20036;-80
2023/08/06 10:04:22;;;;;;;1.83;1.73;;;24.90;99.90;;;;;;5083772;28;20032;-80
2023/08/06 10:06:48;;;;;;;2.83;1.85;;;24.80;99.90;;;;;;5100275;28;20140;-80
2023/08/06 10:09:14;;;;;;;3.95;1.80;;;24.50;99.90;;;;;;5083809;28;20093;-79
2023/08/06 10:11:42;;;;;;;2.25;1.83;;;25.00;99.90;;;;;;5083635;28;20043;-80
2023/08/06 10:14:13;;;;;;;1.88;1.63;;;25.20;99.90;;;;;;5083583;28;20039;-80
2023/08/06 10:16:42;;;;;;;2.92;1.80;;;25.40;99.90;;;;;;5100865;28;20486;-80
2023/08/06 10:19:10;;;;;;;4.35;2.10;;;24.80;99.90;;;;;;5083478;28;20465;-81
2023/08/06 10:21:38;;;;;;;1.85;1.70;;;25.40;99.90;;;;;;5083861;28;20028;-80
2023/08/06 10:24:10;;;;;;;1.65;1.55;;;25.20;99.90;;;;;;5100456;28;20032;-81
2023/08/06 10:26:36;;;;;;;2.42;1.70;;;25.20;99.90;;;;;;5100382;28;20047;-80
2023/08/06 10:29:22;;;;;;;2.20;1.80;;;25.00;99.90;;;;;;5083343;28;20032;-79
2023/08/06 10:31:58;;;;;;;1.77;1.65;;;24.80;99.90;;;;;;5069187;28;20020;-81
2023/08/06 10:34:25;;;;;;;2.67;1.77;;;25.00;99.90;;;;;;5083653;28;20051;-80
2023/08/06 10:36:56;;;;;;;3.03;1.50;;;25.70;99.90;;;;;;5066235;28;20103;-80
2023/08/06 10:39:22;;;;;;;1.95;1.75;;;25.40;99.90;;;;;;5079957;28;20033;-80
2023/08/06 10:41:48;;;;;;;1.98;1.75;;;25.20;99.90;;;;;;5079942;28;20063;-81
2023/08/06 10:44:14;;;;;;;2.03;1.83;;;25.90;99.90;;;;;;5092841;28;20211;-82
2023/08/06 10:46:39;;;;;;;3.25;1.88;;;25.80;99.90;;;;;;5083084;28;20028;-81
2023/08/06 10:49:07;;;;;;;3.72;1.63;;;26.00;99.90;;;;;;5082859;28;20067;-79
2023/08/06 10:51:33;;;;;;;1.70;1.60;;;25.80;99.90;;;;;;5083354;28;20032;-82
2023/08/06 10:53:59;;;;;;;2.88;1.70;;;26.10;99.90;;;;;;5082864;28;20028;-81
2023/08/06 10:56:26;;;;;;;2.10;1.90;;;26.10;99.90;;;;;;5083373;28;20035;-82
2023/08/06 10:58:56;;;;;;;3.25;2.08;;;25.80;99.90;;;;;;5069679;28;20044;-80
2023/08/06 11:01:23;;;;;;;3.15;1.42;;;26.10;99.90;;;;;;5103619;28;20054;-81
2023/08/06 11:03:53;;;;;;;2.63;1.70;;;26.40;99.90;;;;;;5081444;28;20102;-81
2023/08/06 11:06:20;;;;;;;2.17;1.80;;;26.40;99.90;;;;;;5066153;28;20028;-80
2023/08/06 11:08:53;;;;;;;2.88;1.60;;;25.60;99.90;;;;;;5066577;28;20035;-81
2023/08/06 11:11:20;;;;;;;2.30;1.63;;;26.10;99.90;;;;;;5066708;28;20209;-81
2023/08/06 11:13:48;;;;;;;2.47;1.80;;;26.10;99.90;;;;;;5066429;28;20032;-79
2023/08/06 11:16:19;;;;;;;2.20;1.73;;;26.00;99.90;;;;;;5083086;28;20405;-82
2023/08/06 11:18:45;;;;;;;6.78;2.20;;;25.70;99.90;;;;;;5066228;28;20094;-79
2023/08/06 11:21:14;;;;;;;2.53;1.75;;;25.50;99.90;;;;;;5069071;28;20315;-79
2023/08/06 11:23:41;;;;;;;2.85;1.67;;;25.70;99.90;;;;;;5068169;28;20205;-80
2023/08/06 11:26:07;;;;;;;2.05;1.85;;;25.80;99.90;;;;;;5085987;28;20024;-80
2023/08/06 11:28:33;;;;;;;2.22;1.75;;;25.70;99.90;;;;;;5102943;28;20027;-80
2023/08/06 11:31:02;;;;;;;2.20;1.83;;;25.90;99.90;;;;;;5052618;28;20160;-80
2023/08/06 11:33:28;;;;;;;2.55;1.75;;;25.60;99.90;;;;;;5102804;28;20034;-80
2023/08/06 11:35:59;;;;;;;2.10;1.90;;;25.90;99.90;;;;;;5103219;28;20070;-78
2023/08/06 11:38:28;;;;;;;2.25;1.95;;;25.20;99.90;;;;;;5076872;28;20036;-80
2023/08/06 11:40:55;;;;;;;3.28;2.10;;;25.40;99.90;;;;;;5053446;28;20389;-80
2023/08/06 11:43:22;;;;;;;2.45;2.05;;;26.10;99.90;;;;;;5082344;28;20039;-79
2023/08/06 11:45:49;;;;;;;2.60;2.08;;;25.90;99.90;;;;;;5068747;28;20055;-81
2023/08/06 11:48:15;;;;;;;2.42;1.90;;;26.00;99.90;;;;;;5120182;28;20046;-80
2023/08/06 11:50:41;;;;;;;1.80;1.70;;;25.60;99.90;;;;;;5085770;28;20062;-81
2023/08/06 11:53:07;;;;;;;1.98;1.77;;;26.10;99.90;;;;;;5085552;28;20063;-80
2023/08/06 11:55:33;;;;;;;2.50;1.65;;;26.30;99.90;;;;;;5099088;28;20213;-80
2023/08/06 11:58:06;;;;;;;1.90;1.77;;;26.10;99.90;;;;;;5084967;28;20066;-80
2023/08/06 12:00:33;;;;;;;2.60;1.70;;;26.20;99.90;;;;;;5102532;28;20047;-79
2023/08/06 12:02:59;;;;;;;3.22;1.90;;;25.50;99.90;;;;;;5085532;28;20077;-80
2023/08/06 12:05:35;;;;;;;1.80;1.63;;;25.40;99.90;;;;;;5102608;28;20031;-80
2023/08/06 12:08:02;;;;;;;1.80;1.70;;;26.00;99.90;;;;;;5102093;28;20035;-80
2023/08/06 12:10:30;;;;;;;1.80;1.60;;;26.20;99.90;;;;;;5102474;28;20275;-80
2023/08/06 12:12:56;;;;;;;1.80;1.60;;;26.60;99.90;;;;;;5096701;28;20046;-80
2023/08/06 12:15:22;;;;;;;3.42;1.80;;;26.50;99.90;;;;;;5102312;28;20107;-80
2023/08/06 12:17:48;;;;;;;2.33;2.03;;;26.50;99.90;;;;;;5103867;28;20240;-80
2023/08/06 12:20:14;;;;;;;2.20;1.73;;;26.30;99.90;;;;;;5071930;28;20031;-80
2023/08/06 12:22:39;;;;;;;2.40;1.98;;;25.50;99.90;;;;;;5089222;28;20098;-80
2023/08/06 12:25:12;;;;;;;2.10;1.90;;;26.00;99.90;;;;;;5088769;28;20274;-80
2023/08/06 12:27:39;;;;;;;2.53;1.60;;;25.80;99.90;;;;;;5101919;28;20062;-79
2023/08/06 12:30:06;;;;;;;1.80;1.70;;;26.20;99.90;;;;;;5084357;28;20318;-80
2023/08/06 12:32:32;;;;;;;2.45;1.92;;;25.70;99.90;;;;;;5073947;28;20048;-80
2023/08/06 12:34:58;;;;;;;2.45;1.63;;;25.90;99.90;;;;;;5068747;28;20047;-79